sensor_id;sensor_type;location;lat;lon;timestamp;P1;durP1;ratioP1;P2;durP2;ratioP2
44750;SDS011;30477;48.224;11.470;2022-11-30T00:00:37;59.85;;;32.00;;
44750;SDS011;30477;48.224;11.470;2022-11-30T00:03:02;56.87;;;31.17;;
44750;SDS011;30477;48.224;11.470;2022-11-30T00:05:29;56.60;;;30.52;;
44750;SDS011;30477;48.224;11.470;2022-11-30T00:07:55;59.72;;;32.25;;
44750;SDS011;30477;48.224;11.470;2022-11-30T00:10:21;54.50;;;29.27;;
44750;SDS011;30477;48.224;11.470;2022-11-30T00:12:47;58.70;;;30.92;;
44750;SDS011;30477;48.224;11.470;2022-11-30T00:15:13;58.75;;;29.48;;
44750;SDS011;30477;48.224;11.470;2022-11-30T00:17:42;54.55;;;28.88;;
44750;SDS011;30477;48.224;11.470;2022-11-30T00:20:08;57.80;;;30.00;;
44750;SDS011;30477;48.224;11.470;2022-11-30T00:22:34;55.17;;;28.95;;
44750;SDS011;30477;48.224;11.470;2022-11-30T00:25:00;61.17;;;29.03;;
44750;SDS011;30477;48.224;11.470;2022-11-30T00:27:28;57.05;;;29.13;;
44750;SDS011;30477;48.224;11.470;2022-11-30T00:29:55;55.78;;;29.45;;
44750;SDS011;30477;48.224;11.470;2022-11-30T00:32:20;57.40;;;28.70;;
44750;SDS011;30477;48.224;11.470;2022-11-30T00:34:46;59.87;;;29.20;;
44750;SDS011;30477;48.224;11.470;2022-11-30T00:37:11;56.00;;;29.67;;
44750;SDS011;30477;48.224;11.470;2022-11-30T00:39:37;55.07;;;28.70;;
44750;SDS011;30477;48.224;11.470;2022-11-30T00:42:02;53.70;;;27.63;;
44750;SDS011;30477;48.224;11.470;2022-11-30T00:44:28;50.20;;;25.97;;
44750;SDS011;30477;48.224;11.470;2022-11-30T00:46:53;50.63;;;26.07;;
44750;SDS011;30477;48.224;11.470;2022-11-30T00:49:18;47.77;;;25.37;;
44750;SDS011;30477;48.224;11.470;2022-11-30T00:51:44;52.40;;;25.27;;
44750;SDS011;30477;48.224;11.470;2022-11-30T00:54:09;48.70;;;24.17;;
44750;SDS011;30477;48.224;11.470;2022-11-30T00:56:34;46.13;;;24.90;;
44750;SDS011;30477;48.224;11.470;2022-11-30T00:59:00;47.63;;;23.17;;
44750;SDS011;30477;48.224;11.470;2022-11-30T01:01:25;45.70;;;23.23;;
44750;SDS011;30477;48.224;11.470;2022-11-30T01:03:51;46.13;;;23.60;;
44750;SDS011;30477;48.224;11.470;2022-11-30T01:06:17;44.45;;;22.17;;
44750;SDS011;30477;48.224;11.470;2022-11-30T01:08:43;47.47;;;23.20;;
44750;SDS011;30477;48.224;11.470;2022-11-30T01:14:03;42.95;;;22.17;;
44750;SDS011;30477;48.224;11.470;2022-11-30T01:16:30;46.03;;;22.17;;
44750;SDS011;30477;48.224;11.470;2022-11-30T01:18:57;42.63;;;21.88;;
44750;SDS011;30477;48.224;11.470;2022-11-30T01:21:24;43.80;;;23.30;;
44750;SDS011;30477;48.224;11.470;2022-11-30T01:23:51;42.38;;;21.73;;
44750;SDS011;30477;48.224;11.470;2022-11-30T01:26:17;43.35;;;21.58;;
44750;SDS011;30477;48.224;11.470;2022-11-30T01:31:10;40.92;;;21.10;;
44750;SDS011;30477;48.224;11.470;2022-11-30T01:33:39;42.65;;;21.58;;
44750;SDS011;30477;48.224;11.470;2022-11-30T01:36:11;44.47;;;22.83;;
44750;SDS011;30477;48.224;11.470;2022-11-30T01:38:40;43.15;;;23.48;;
44750;SDS011;30477;48.224;11.470;2022-11-30T01:41:07;48.78;;;23.63;;
44750;SDS011;30477;48.224;11.470;2022-11-30T01:43:36;44.53;;;22.60;;
44750;SDS011;30477;48.224;11.470;2022-11-30T01:46:20;50.22;;;24.05;;
44750;SDS011;30477;48.224;11.470;2022-11-30T01:48:58;47.72;;;24.63;;
44750;SDS011;30477;48.224;11.470;2022-11-30T01:51:34;48.03;;;24.60;;
44750;SDS011;30477;48.224;11.470;2022-11-30T01:54:04;52.40;;;24.92;;
44750;SDS011;30477;48.224;11.470;2022-11-30T01:56:32;54.05;;;25.05;;
44750;SDS011;30477;48.224;11.470;2022-11-30T01:58:57;51.67;;;25.50;;
44750;SDS011;30477;48.224;11.470;2022-11-30T02:01:24;54.22;;;26.45;;
44750;SDS011;30477;48.224;11.470;2022-11-30T02:04:01;50.42;;;25.88;;
44750;SDS011;30477;48.224;11.470;2022-11-30T02:06:31;47.60;;;24.55;;
44750;SDS011;30477;48.224;11.470;2022-11-30T02:08:57;54.45;;;25.65;;
44750;SDS011;30477;48.224;11.470;2022-11-30T02:11:23;51.05;;;26.27;;
44750;SDS011;30477;48.224;11.470;2022-11-30T02:21:50;55.58;;;27.02;;
44750;SDS011;30477;48.224;11.470;2022-11-30T02:29:33;52.27;;;27.00;;
44750;SDS011;30477;48.224;11.470;2022-11-30T02:32:28;51.10;;;27.10;;
44750;SDS011;30477;48.224;11.470;2022-11-30T02:35:02;56.00;;;27.30;;
44750;SDS011;30477;48.224;11.470;2022-11-30T02:37:30;56.00;;;28.60;;
44750;SDS011;30477;48.224;11.470;2022-11-30T02:39:58;52.35;;;26.58;;
44750;SDS011;30477;48.224;11.470;2022-11-30T02:42:23;56.13;;;29.40;;
44750;SDS011;30477;48.224;11.470;2022-11-30T02:44:50;55.17;;;28.83;;
44750;SDS011;30477;48.224;11.470;2022-11-30T02:47:20;54.78;;;28.42;;
44750;SDS011;30477;48.224;11.470;2022-11-30T02:49:52;56.78;;;29.50;;
44750;SDS011;30477;48.224;11.470;2022-11-30T02:52:22;57.60;;;28.65;;
44750;SDS011;30477;48.224;11.470;2022-11-30T02:54:50;56.85;;;29.65;;
44750;SDS011;30477;48.224;11.470;2022-11-30T02:57:16;63.42;;;29.90;;
44750;SDS011;30477;48.224;11.470;2022-11-30T02:59:41;57.03;;;29.27;;
44750;SDS011;30477;48.224;11.470;2022-11-30T03:02:07;56.90;;;29.88;;
44750;SDS011;30477;48.224;11.470;2022-11-30T03:04:32;59.50;;;30.33;;
44750;SDS011;30477;48.224;11.470;2022-11-30T03:06:58;53.97;;;29.17;;
44750;SDS011;30477;48.224;11.470;2022-11-30T03:09:23;57.30;;;30.67;;
44750;SDS011;30477;48.224;11.470;2022-11-30T03:11:48;56.20;;;29.20;;
44750;SDS011;30477;48.224;11.470;2022-11-30T03:14:14;58.00;;;28.07;;
44750;SDS011;30477;48.224;11.470;2022-11-30T03:16:39;55.13;;;29.10;;
44750;SDS011;30477;48.224;11.470;2022-11-30T03:19:05;56.93;;;29.10;;
44750;SDS011;30477;48.224;11.470;2022-11-30T03:21:30;59.30;;;30.10;;
44750;SDS011;30477;48.224;11.470;2022-11-30T03:23:56;56.10;;;29.33;;
44750;SDS011;30477;48.224;11.470;2022-11-30T03:26:21;52.17;;;29.53;;
44750;SDS011;30477;48.224;11.470;2022-11-30T03:28:46;60.27;;;30.60;;
44750;SDS011;30477;48.224;11.470;2022-11-30T03:31:12;59.53;;;30.03;;
44750;SDS011;30477;48.224;11.470;2022-11-30T03:33:39;59.78;;;30.77;;
44750;SDS011;30477;48.224;11.470;2022-11-30T03:36:06;58.95;;;31.02;;
44750;SDS011;30477;48.224;11.470;2022-11-30T03:38:32;61.17;;;31.45;;
44750;SDS011;30477;48.224;11.470;2022-11-30T03:41:05;59.90;;;29.92;;
44750;SDS011;30477;48.224;11.470;2022-11-30T03:43:33;57.40;;;30.10;;
44750;SDS011;30477;48.224;11.470;2022-11-30T03:45:59;53.47;;;28.35;;
44750;SDS011;30477;48.224;11.470;2022-11-30T03:48:24;57.90;;;27.93;;
44750;SDS011;30477;48.224;11.470;2022-11-30T03:50:50;55.20;;;26.57;;
44750;SDS011;30477;48.224;11.470;2022-11-30T03:53:19;50.23;;;25.73;;
44750;SDS011;30477;48.224;11.470;2022-11-30T03:55:56;52.55;;;26.05;;
44750;SDS011;30477;48.224;11.470;2022-11-30T03:58:23;47.35;;;25.27;;
44750;SDS011;30477;48.224;11.470;2022-11-30T04:00:49;49.20;;;25.55;;
44750;SDS011;30477;48.224;11.470;2022-11-30T04:03:22;47.13;;;23.90;;
44750;SDS011;30477;48.224;11.470;2022-11-30T04:05:47;50.00;;;24.47;;
44750;SDS011;30477;48.224;11.470;2022-11-30T04:08:13;44.33;;;23.47;;
44750;SDS011;30477;48.224;11.470;2022-11-30T04:10:38;44.77;;;24.00;;
44750;SDS011;30477;48.224;11.470;2022-11-30T04:13:03;48.07;;;24.73;;
44750;SDS011;30477;48.224;11.470;2022-11-30T04:15:29;43.87;;;23.77;;
44750;SDS011;30477;48.224;11.470;2022-11-30T04:17:54;44.70;;;24.03;;
44750;SDS011;30477;48.224;11.470;2022-11-30T04:20:19;50.73;;;23.87;;
44750;SDS011;30477;48.224;11.470;2022-11-30T04:22:45;48.87;;;24.13;;
44750;SDS011;30477;48.224;11.470;2022-11-30T04:25:10;54.13;;;24.83;;
44750;SDS011;30477;48.224;11.470;2022-11-30T04:27:35;46.93;;;24.77;;
44750;SDS011;30477;48.224;11.470;2022-11-30T04:30:01;44.83;;;24.07;;
44750;SDS011;30477;48.224;11.470;2022-11-30T04:32:26;50.63;;;25.20;;
44750;SDS011;30477;48.224;11.470;2022-11-30T04:34:51;48.43;;;24.60;;
44750;SDS011;30477;48.224;11.470;2022-11-30T04:37:17;49.57;;;25.03;;
44750;SDS011;30477;48.224;11.470;2022-11-30T04:39:42;47.23;;;23.63;;
44750;SDS011;30477;48.224;11.470;2022-11-30T04:42:07;47.13;;;23.80;;
44750;SDS011;30477;48.224;11.470;2022-11-30T04:44:33;49.80;;;25.60;;
44750;SDS011;30477;48.224;11.470;2022-11-30T04:46:58;47.07;;;24.00;;
44750;SDS011;30477;48.224;11.470;2022-11-30T04:49:23;48.23;;;23.57;;
44750;SDS011;30477;48.224;11.470;2022-11-30T04:51:49;46.07;;;24.17;;
44750;SDS011;30477;48.224;11.470;2022-11-30T04:54:14;47.10;;;24.10;;
44750;SDS011;30477;48.224;11.470;2022-11-30T04:56:39;43.67;;;22.77;;
44750;SDS011;30477;48.224;11.470;2022-11-30T04:59:05;50.07;;;25.47;;
44750;SDS011;30477;48.224;11.470;2022-11-30T05:01:30;42.43;;;22.37;;
44750;SDS011;30477;48.224;11.470;2022-11-30T05:03:55;42.90;;;21.37;;
44750;SDS011;30477;48.224;11.470;2022-11-30T05:06:23;41.60;;;21.52;;
44750;SDS011;30477;48.224;11.470;2022-11-30T05:08:51;37.13;;;20.10;;
44750;SDS011;30477;48.224;11.470;2022-11-30T05:11:17;40.13;;;21.45;;
44750;SDS011;30477;48.224;11.470;2022-11-30T05:16:08;37.93;;;20.23;;
44750;SDS011;30477;48.224;11.470;2022-11-30T05:18:34;43.38;;;21.52;;
44750;SDS011;30477;48.224;11.470;2022-11-30T05:21:00;41.70;;;20.10;;
44750;SDS011;30477;48.224;11.470;2022-11-30T05:23:27;38.80;;;20.50;;
44750;SDS011;30477;48.224;11.470;2022-11-30T05:25:52;41.10;;;20.65;;
44750;SDS011;30477;48.224;11.470;2022-11-30T05:28:18;33.17;;;18.50;;
44750;SDS011;30477;48.224;11.470;2022-11-30T05:30:43;34.40;;;17.87;;
44750;SDS011;30477;48.224;11.470;2022-11-30T05:33:09;35.13;;;19.07;;
44750;SDS011;30477;48.224;11.470;2022-11-30T05:35:35;35.85;;;19.30;;
44750;SDS011;30477;48.224;11.470;2022-11-30T05:38:00;39.47;;;19.75;;
44750;SDS011;30477;48.224;11.470;2022-11-30T05:40:26;34.97;;;19.33;;
44750;SDS011;30477;48.224;11.470;2022-11-30T05:42:56;35.40;;;19.17;;
44750;SDS011;30477;48.224;11.470;2022-11-30T05:45:22;33.38;;;18.55;;
44750;SDS011;30477;48.224;11.470;2022-11-30T05:47:48;35.33;;;19.23;;
44750;SDS011;30477;48.224;11.470;2022-11-30T05:50:14;34.05;;;18.58;;
44750;SDS011;30477;48.224;11.470;2022-11-30T05:52:39;34.50;;;18.97;;
44750;SDS011;30477;48.224;11.470;2022-11-30T05:55:05;38.40;;;19.70;;
44750;SDS011;30477;48.224;11.470;2022-11-30T05:57:30;37.65;;;20.10;;
44750;SDS011;30477;48.224;11.470;2022-11-30T05:59:59;37.17;;;19.13;;
44750;SDS011;30477;48.224;11.470;2022-11-30T06:02:24;36.30;;;17.70;;
44750;SDS011;30477;48.224;11.470;2022-11-30T06:04:49;39.20;;;20.47;;
44750;SDS011;30477;48.224;11.470;2022-11-30T06:07:15;35.33;;;19.03;;
44750;SDS011;30477;48.224;11.470;2022-11-30T06:09:40;37.60;;;20.10;;
44750;SDS011;30477;48.224;11.470;2022-11-30T06:12:06;36.03;;;20.33;;
44750;SDS011;30477;48.224;11.470;2022-11-30T06:14:31;39.58;;;20.42;;
44750;SDS011;30477;48.224;11.470;2022-11-30T06:16:57;39.73;;;20.40;;
44750;SDS011;30477;48.224;11.470;2022-11-30T06:19:22;41.90;;;21.40;;
44750;SDS011;30477;48.224;11.470;2022-11-30T06:24:14;35.23;;;18.17;;
44750;SDS011;30477;48.224;11.470;2022-11-30T06:26:39;34.83;;;19.40;;
44750;SDS011;30477;48.224;11.470;2022-11-30T06:29:04;38.87;;;19.90;;
44750;SDS011;30477;48.224;11.470;2022-11-30T06:31:30;39.03;;;20.03;;
44750;SDS011;30477;48.224;11.470;2022-11-30T06:33:56;43.60;;;21.50;;
44750;SDS011;30477;48.224;11.470;2022-11-30T06:38:48;36.50;;;19.52;;
44750;SDS011;30477;48.224;11.470;2022-11-30T06:41:14;40.65;;;20.42;;
44750;SDS011;30477;48.224;11.470;2022-11-30T06:43:40;39.85;;;21.17;;
44750;SDS011;30477;48.224;11.470;2022-11-30T06:46:06;40.33;;;21.50;;
44750;SDS011;30477;48.224;11.470;2022-11-30T06:48:32;36.22;;;19.63;;
44750;SDS011;30477;48.224;11.470;2022-11-30T06:50:58;35.95;;;19.88;;
44750;SDS011;30477;48.224;11.470;2022-11-30T06:53:25;44.70;;;22.13;;
44750;SDS011;30477;48.224;11.470;2022-11-30T06:58:16;37.50;;;19.80;;
44750;SDS011;30477;48.224;11.470;2022-11-30T07:00:42;37.90;;;19.93;;
44750;SDS011;30477;48.224;11.470;2022-11-30T07:03:09;39.28;;;20.70;;
44750;SDS011;30477;48.224;11.470;2022-11-30T07:05:38;41.70;;;20.58;;
44750;SDS011;30477;48.224;11.470;2022-11-30T07:08:07;42.50;;;21.92;;
44750;SDS011;30477;48.224;11.470;2022-11-30T07:10:33;36.40;;;20.20;;
44750;SDS011;30477;48.224;11.470;2022-11-30T07:13:02;44.03;;;22.05;;
44750;SDS011;30477;48.224;11.470;2022-11-30T07:15:27;37.60;;;21.63;;
44750;SDS011;30477;48.224;11.470;2022-11-30T07:17:53;38.77;;;21.23;;
44750;SDS011;30477;48.224;11.470;2022-11-30T07:20:18;44.27;;;22.50;;
44750;SDS011;30477;48.224;11.470;2022-11-30T07:22:43;42.00;;;21.40;;
44750;SDS011;30477;48.224;11.470;2022-11-30T07:25:09;42.40;;;21.97;;
44750;SDS011;30477;48.224;11.470;2022-11-30T07:27:53;42.97;;;21.33;;
44750;SDS011;30477;48.224;11.470;2022-11-30T07:32:44;40.80;;;21.52;;
44750;SDS011;30477;48.224;11.470;2022-11-30T07:35:10;40.93;;;21.67;;
44750;SDS011;30477;48.224;11.470;2022-11-30T07:37:35;43.27;;;22.37;;
44750;SDS011;30477;48.224;11.470;2022-11-30T07:40:01;46.25;;;24.38;;
44750;SDS011;30477;48.224;11.470;2022-11-30T07:42:27;47.08;;;24.45;;
44750;SDS011;30477;48.224;11.470;2022-11-30T07:44:53;46.95;;;23.85;;
44750;SDS011;30477;48.224;11.470;2022-11-30T07:47:18;44.87;;;23.30;;
44750;SDS011;30477;48.224;11.470;2022-11-30T07:49:43;46.67;;;25.37;;
44750;SDS011;30477;48.224;11.470;2022-11-30T07:52:09;46.93;;;24.43;;
44750;SDS011;30477;48.224;11.470;2022-11-30T07:54:34;49.03;;;24.57;;
44750;SDS011;30477;48.224;11.470;2022-11-30T07:56:59;47.63;;;25.87;;
44750;SDS011;30477;48.224;11.470;2022-11-30T07:59:25;47.58;;;25.23;;
44750;SDS011;30477;48.224;11.470;2022-11-30T08:01:51;49.90;;;24.60;;
44750;SDS011;30477;48.224;11.470;2022-11-30T08:04:16;45.07;;;24.10;;
44750;SDS011;30477;48.224;11.470;2022-11-30T08:06:42;47.47;;;23.97;;
44750;SDS011;30477;48.224;11.470;2022-11-30T08:09:09;48.03;;;24.87;;
44750;SDS011;30477;48.224;11.470;2022-11-30T08:11:35;50.85;;;25.45;;
44750;SDS011;30477;48.224;11.470;2022-11-30T08:14:01;46.83;;;24.60;;
44750;SDS011;30477;48.224;11.470;2022-11-30T08:16:28;45.50;;;24.17;;
44750;SDS011;30477;48.224;11.470;2022-11-30T08:18:55;46.80;;;23.60;;
44750;SDS011;30477;48.224;11.470;2022-11-30T08:21:23;46.10;;;24.88;;
44750;SDS011;30477;48.224;11.470;2022-11-30T08:23:50;47.40;;;24.30;;
44750;SDS011;30477;48.224;11.470;2022-11-30T08:26:20;48.30;;;25.27;;
44750;SDS011;30477;48.224;11.470;2022-11-30T08:28:47;48.95;;;24.63;;
44750;SDS011;30477;48.224;11.470;2022-11-30T08:31:34;46.90;;;24.50;;
44750;SDS011;30477;48.224;11.470;2022-11-30T08:34:04;34.45;;;17.63;;
44750;SDS011;30477;48.224;11.470;2022-11-30T08:36:35;49.13;;;25.35;;
44750;SDS011;30477;48.224;11.470;2022-11-30T08:39:01;43.97;;;23.23;;
44750;SDS011;30477;48.224;11.470;2022-11-30T08:41:28;52.15;;;25.98;;
44750;SDS011;30477;48.224;11.470;2022-11-30T08:43:54;43.50;;;23.25;;
44750;SDS011;30477;48.224;11.470;2022-11-30T08:46:20;47.33;;;24.90;;
44750;SDS011;30477;48.224;11.470;2022-11-30T08:48:47;42.38;;;23.45;;
44750;SDS011;30477;48.224;11.470;2022-11-30T08:53:40;47.65;;;24.48;;
44750;SDS011;30477;48.224;11.470;2022-11-30T08:56:12;54.10;;;24.53;;
44750;SDS011;30477;48.224;11.470;2022-11-30T08:58:39;49.58;;;26.08;;
44750;SDS011;30477;48.224;11.470;2022-11-30T09:03:30;47.63;;;24.40;;
44750;SDS011;30477;48.224;11.470;2022-11-30T09:06:01;46.00;;;24.83;;
44750;SDS011;30477;48.224;11.470;2022-11-30T09:08:29;50.33;;;25.02;;
44750;SDS011;30477;48.224;11.470;2022-11-30T09:10:55;48.42;;;25.00;;
44750;SDS011;30477;48.224;11.470;2022-11-30T09:13:20;48.93;;;24.97;;
44750;SDS011;30477;48.224;11.470;2022-11-30T09:15:52;47.50;;;25.00;;
44750;SDS011;30477;48.224;11.470;2022-11-30T09:18:18;46.80;;;25.10;;
44750;SDS011;30477;48.224;11.470;2022-11-30T09:20:44;48.17;;;24.57;;
44750;SDS011;30477;48.224;11.470;2022-11-30T09:23:09;45.10;;;23.83;;
44750;SDS011;30477;48.224;11.470;2022-11-30T09:25:34;39.20;;;20.97;;
44750;SDS011;30477;48.224;11.470;2022-11-30T09:28:00;29.50;;;17.53;;
44750;SDS011;30477;48.224;11.470;2022-11-30T09:30:25;22.60;;;13.43;;
44750;SDS011;30477;48.224;11.470;2022-11-30T09:32:51;23.30;;;13.53;;
44750;SDS011;30477;48.224;11.470;2022-11-30T09:35:16;23.13;;;14.53;;
44750;SDS011;30477;48.224;11.470;2022-11-30T09:37:41;29.87;;;16.07;;
44750;SDS011;30477;48.224;11.470;2022-11-30T09:40:07;29.03;;;17.00;;
44750;SDS011;30477;48.224;11.470;2022-11-30T09:45:05;32.40;;;18.60;;
44750;SDS011;30477;48.224;11.470;2022-11-30T09:47:58;34.38;;;17.85;;
44750;SDS011;30477;48.224;11.470;2022-11-30T09:50:27;33.28;;;18.20;;
44750;SDS011;30477;48.224;11.470;2022-11-30T09:53:03;32.35;;;18.23;;
44750;SDS011;30477;48.224;11.470;2022-11-30T09:55:36;31.40;;;17.52;;
44750;SDS011;30477;48.224;11.470;2022-11-30T09:58:05;31.00;;;17.58;;
44750;SDS011;30477;48.224;11.470;2022-11-30T10:00:35;28.98;;;15.95;;
44750;SDS011;30477;48.224;11.470;2022-11-30T10:03:03;28.48;;;16.45;;
44750;SDS011;30477;48.224;11.470;2022-11-30T10:05:46;23.52;;;15.00;;
44750;SDS011;30477;48.224;11.470;2022-11-30T10:13:57;21.05;;;13.07;;
44750;SDS011;30477;48.224;11.470;2022-11-30T10:25:09;20.52;;;13.02;;
44750;SDS011;30477;48.224;11.470;2022-11-30T10:27:49;18.35;;;12.30;;
44750;SDS011;30477;48.224;11.470;2022-11-30T10:30:24;19.23;;;12.00;;
44750;SDS011;30477;48.224;11.470;2022-11-30T10:32:57;15.77;;;9.77;;
44750;SDS011;30477;48.224;11.470;2022-11-30T10:38:16;23.92;;;13.88;;
44750;SDS011;30477;48.224;11.470;2022-11-30T10:40:58;23.48;;;13.75;;
44750;SDS011;30477;48.224;11.470;2022-11-30T10:46:21;21.58;;;12.77;;
44750;SDS011;30477;48.224;11.470;2022-11-30T10:48:56;23.20;;;12.73;;
44750;SDS011;30477;48.224;11.470;2022-11-30T10:51:32;18.70;;;12.25;;
44750;SDS011;30477;48.224;11.470;2022-11-30T10:54:01;19.55;;;12.20;;
44750;SDS011;30477;48.224;11.470;2022-11-30T10:56:43;18.55;;;11.93;;
44750;SDS011;30477;48.224;11.470;2022-11-30T10:59:20;18.83;;;11.70;;
44750;SDS011;30477;48.224;11.470;2022-11-30T11:01:49;21.90;;;12.90;;
44750;SDS011;30477;48.224;11.470;2022-11-30T11:04:17;21.30;;;12.65;;
44750;SDS011;30477;48.224;11.470;2022-11-30T11:06:56;17.75;;;11.40;;
44750;SDS011;30477;48.224;11.470;2022-11-30T11:09:42;20.40;;;11.38;;
44750;SDS011;30477;48.224;11.470;2022-11-30T11:12:17;19.02;;;12.10;;
44750;SDS011;30477;48.224;11.470;2022-11-30T11:14:46;18.85;;;12.30;;
44750;SDS011;30477;48.224;11.470;2022-11-30T11:19:44;20.35;;;12.82;;
44750;SDS011;30477;48.224;11.470;2022-11-30T11:24:49;24.30;;;13.43;;
44750;SDS011;30477;48.224;11.470;2022-11-30T11:32:56;26.98;;;16.55;;
44750;SDS011;30477;48.224;11.470;2022-11-30T11:35:45;30.92;;;18.17;;
44750;SDS011;30477;48.224;11.470;2022-11-30T11:38:17;28.90;;;17.83;;
44750;SDS011;30477;48.224;11.470;2022-11-30T11:40:51;31.92;;;18.92;;
44750;SDS011;30477;48.224;11.470;2022-11-30T11:43:20;34.20;;;19.02;;
44750;SDS011;30477;48.224;11.470;2022-11-30T11:45:53;35.20;;;19.95;;
44750;SDS011;30477;48.224;11.470;2022-11-30T11:50:55;36.60;;;18.90;;
44750;SDS011;30477;48.224;11.470;2022-11-30T11:53:23;29.65;;;18.20;;
44750;SDS011;30477;48.224;11.470;2022-11-30T11:56:29;30.27;;;19.20;;
44750;SDS011;30477;48.224;11.470;2022-11-30T12:02:03;32.78;;;18.35;;
44750;SDS011;30477;48.224;11.470;2022-11-30T12:07:35;25.58;;;15.55;;
44750;SDS011;30477;48.224;11.470;2022-11-30T12:10:35;24.58;;;15.77;;
44750;SDS011;30477;48.224;11.470;2022-11-30T12:13:10;29.00;;;16.05;;
44750;SDS011;30477;48.224;11.470;2022-11-30T12:16:31;21.40;;;13.68;;
44750;SDS011;30477;48.224;11.470;2022-11-30T12:21:47;25.23;;;15.57;;
44750;SDS011;30477;48.224;11.470;2022-11-30T12:30:06;23.73;;;15.38;;
44750;SDS011;30477;48.224;11.470;2022-11-30T12:35:57;20.33;;;12.63;;
44750;SDS011;30477;48.224;11.470;2022-11-30T12:38:57;21.20;;;13.13;;
44750;SDS011;30477;48.224;11.470;2022-11-30T12:44:56;19.98;;;12.57;;
44750;SDS011;30477;48.224;11.470;2022-11-30T12:50:32;19.63;;;12.10;;
44750;SDS011;30477;48.224;11.470;2022-11-30T12:53:08;22.17;;;12.50;;
44750;SDS011;30477;48.224;11.470;2022-11-30T13:03:53;21.30;;;13.43;;
44750;SDS011;30477;48.224;11.470;2022-11-30T13:06:34;18.58;;;11.93;;
44750;SDS011;30477;48.224;11.470;2022-11-30T13:12:01;20.33;;;12.40;;
44750;SDS011;30477;48.224;11.470;2022-11-30T13:14:30;18.02;;;11.30;;
44750;SDS011;30477;48.224;11.470;2022-11-30T13:17:03;19.85;;;11.38;;
44750;SDS011;30477;48.224;11.470;2022-11-30T13:22:16;19.20;;;12.50;;
44750;SDS011;30477;48.224;11.470;2022-11-30T13:24:52;18.60;;;12.18;;
44750;SDS011;30477;48.224;11.470;2022-11-30T13:27:34;20.50;;;11.82;;
44750;SDS011;30477;48.224;11.470;2022-11-30T13:30:18;18.98;;;12.07;;
44750;SDS011;30477;48.224;11.470;2022-11-30T13:32:55;20.35;;;13.23;;
44750;SDS011;30477;48.224;11.470;2022-11-30T13:38:05;19.48;;;12.27;;
44750;SDS011;30477;48.224;11.470;2022-11-30T13:40:52;17.77;;;11.52;;
44750;SDS011;30477;48.224;11.470;2022-11-30T13:43:19;16.58;;;11.02;;
44750;SDS011;30477;48.224;11.470;2022-11-30T13:45:46;21.73;;;12.07;;
44750;SDS011;30477;48.224;11.470;2022-11-30T13:48:17;18.42;;;11.73;;
44750;SDS011;30477;48.224;11.470;2022-11-30T13:50:55;20.02;;;12.55;;
44750;SDS011;30477;48.224;11.470;2022-11-30T13:53:25;20.40;;;12.70;;
44750;SDS011;30477;48.224;11.470;2022-11-30T13:58:24;18.85;;;12.45;;
44750;SDS011;30477;48.224;11.470;2022-11-30T14:09:12;23.25;;;13.80;;
44750;SDS011;30477;48.224;11.470;2022-11-30T14:11:39;23.38;;;14.75;;
44750;SDS011;30477;48.224;11.470;2022-11-30T14:17:08;25.05;;;14.60;;
44750;SDS011;30477;48.224;11.470;2022-11-30T14:19:37;26.60;;;15.80;;
44750;SDS011;30477;48.224;11.470;2022-11-30T14:22:04;21.60;;;13.10;;
44750;SDS011;30477;48.224;11.470;2022-11-30T14:24:36;23.00;;;13.52;;
44750;SDS011;30477;48.224;11.470;2022-11-30T14:27:02;24.33;;;14.18;;
44750;SDS011;30477;48.224;11.470;2022-11-30T14:29:30;24.40;;;14.05;;
44750;SDS011;30477;48.224;11.470;2022-11-30T14:32:00;25.73;;;13.73;;
44750;SDS011;30477;48.224;11.470;2022-11-30T14:34:36;22.05;;;12.80;;
44750;SDS011;30477;48.224;11.470;2022-11-30T14:37:22;23.02;;;13.45;;
44750;SDS011;30477;48.224;11.470;2022-11-30T14:39:51;25.10;;;15.43;;
44750;SDS011;30477;48.224;11.470;2022-11-30T14:42:21;28.23;;;16.27;;
44750;SDS011;30477;48.224;11.470;2022-11-30T14:44:49;32.83;;;18.65;;
44750;SDS011;30477;48.224;11.470;2022-11-30T14:47:26;30.77;;;17.90;;
44750;SDS011;30477;48.224;11.470;2022-11-30T14:49:52;35.33;;;18.48;;
44750;SDS011;30477;48.224;11.470;2022-11-30T14:57:39;27.63;;;17.48;;
44750;SDS011;30477;48.224;11.470;2022-11-30T15:00:16;26.92;;;16.55;;
44750;SDS011;30477;48.224;11.470;2022-11-30T15:02:44;30.77;;;17.50;;
44750;SDS011;30477;48.224;11.470;2022-11-30T15:05:28;30.60;;;18.27;;
44750;SDS011;30477;48.224;11.470;2022-11-30T15:07:55;31.92;;;19.52;;
44750;SDS011;30477;48.224;11.470;2022-11-30T15:10:27;33.80;;;19.77;;
44750;SDS011;30477;48.224;11.470;2022-11-30T15:12:55;32.83;;;19.45;;
44750;SDS011;30477;48.224;11.470;2022-11-30T15:15:25;36.33;;;20.55;;
44750;SDS011;30477;48.224;11.470;2022-11-30T15:17:55;33.60;;;19.27;;
44750;SDS011;30477;48.224;11.470;2022-11-30T15:20:26;35.38;;;20.83;;
44750;SDS011;30477;48.224;11.470;2022-11-30T15:22:58;34.50;;;20.65;;
44750;SDS011;30477;48.224;11.470;2022-11-30T15:25:29;39.25;;;21.77;;
44750;SDS011;30477;48.224;11.470;2022-11-30T15:27:58;35.70;;;20.70;;
44750;SDS011;30477;48.224;11.470;2022-11-30T15:30:25;36.33;;;21.25;;
44750;SDS011;30477;48.224;11.470;2022-11-30T15:32:51;32.33;;;20.35;;
44750;SDS011;30477;48.224;11.470;2022-11-30T15:35:19;35.07;;;20.90;;
44750;SDS011;30477;48.224;11.470;2022-11-30T15:37:49;35.47;;;20.85;;
44750;SDS011;30477;48.224;11.470;2022-11-30T15:42:59;38.80;;;20.25;;
44750;SDS011;30477;48.224;11.470;2022-11-30T15:50:58;35.20;;;21.50;;
44750;SDS011;30477;48.224;11.470;2022-11-30T15:53:26;35.30;;;20.75;;
44750;SDS011;30477;48.224;11.470;2022-11-30T15:55:58;37.42;;;20.67;;
44750;SDS011;30477;48.224;11.470;2022-11-30T15:58:28;37.40;;;21.65;;
44750;SDS011;30477;48.224;11.470;2022-11-30T16:09:19;35.83;;;21.13;;
44750;SDS011;30477;48.224;11.470;2022-11-30T16:11:49;42.63;;;25.10;;
44750;SDS011;30477;48.224;11.470;2022-11-30T16:14:18;45.35;;;25.92;;
44750;SDS011;30477;48.224;11.470;2022-11-30T16:16:43;49.63;;;27.40;;
44750;SDS011;30477;48.224;11.470;2022-11-30T16:19:10;47.33;;;26.77;;
44750;SDS011;30477;48.224;11.470;2022-11-30T16:21:35;42.20;;;24.20;;
44750;SDS011;30477;48.224;11.470;2022-11-30T16:24:01;42.63;;;22.87;;
44750;SDS011;30477;48.224;11.470;2022-11-30T16:26:28;38.42;;;21.33;;
44750;SDS011;30477;48.224;11.470;2022-11-30T16:28:53;37.20;;;21.37;;
44750;SDS011;30477;48.224;11.470;2022-11-30T16:31:19;37.85;;;20.65;;
44750;SDS011;30477;48.224;11.470;2022-11-30T16:33:46;36.85;;;21.10;;
44750;SDS011;30477;48.224;11.470;2022-11-30T16:36:14;32.88;;;20.33;;
44750;SDS011;30477;48.224;11.470;2022-11-30T16:38:41;36.65;;;20.48;;
44750;SDS011;30477;48.224;11.470;2022-11-30T16:41:12;34.37;;;19.83;;
44750;SDS011;30477;48.224;11.470;2022-11-30T16:43:49;34.92;;;20.30;;
44750;SDS011;30477;48.224;11.470;2022-11-30T16:46:19;35.00;;;20.40;;